Time;durP1;ratioP1;P1;durP2;ratioP2;P2;SDS_P1;SDS_P2;PMS_P1;PMS_P2;Temp;Humidity;BMP_temperature;BMP_pressure;BME280_temperature;BME280_humidity;BME280_pressure;Samples;Min_cycle;Max_cycle;Signal;HPM_P1;HPM_P2
2022/07/11 00:02:25;;;;;;;0.80;0.50;;;18.20;99.90;;;;;;5112223;28;20200;-59
2022/07/11 00:04:52;;;;;;;0.52;0.40;;;18.10;99.90;;;;;;5113276;28;20200;-59
2022/07/11 00:07:19;;;;;;;0.32;0.32;;;18.10;99.90;;;;;;5113321;28;20216;-60
2022/07/11 00:09:47;;;;;;;0.70;0.43;;;18.10;99.90;;;;;;5112817;28;20565;-59
2022/07/11 00:12:15;;;;;;;0.35;0.35;;;18.10;99.90;;;;;;5102820;28;20730;-60
2022/07/11 00:14:42;;;;;;;0.45;0.45;;;18.10;99.90;;;;;;5111856;28;20278;-59
2022/07/11 00:17:10;;;;;;;0.50;0.50;;;18.10;99.90;;;;;;5111663;28;20249;-59
2022/07/11 00:19:37;;;;;;;0.40;0.40;;;18.10;99.90;;;;;;5112823;28;20204;-59
2022/07/11 00:22:05;;;;;;;0.50;0.50;;;18.10;99.90;;;;;;5111877;28;20623;-58
2022/07/11 00:24:32;;;;;;;0.40;0.40;;;18.00;99.90;;;;;;5112406;28;20640;-59
2022/07/11 00:27:01;;;;;;;0.50;0.50;;;18.00;99.90;;;;;;5111163;28;20195;-59
2022/07/11 00:29:29;;;;;;;0.50;0.50;;;18.00;99.90;;;;;;5112046;28;20339;-59
2022/07/11 00:31:56;;;;;;;0.50;0.50;;;18.10;99.90;;;;;;5110641;28;20192;-58
2022/07/11 00:34:23;;;;;;;0.40;0.40;;;18.10;99.90;;;;;;5112662;28;20287;-58
2022/07/11 00:36:50;;;;;;;0.40;0.40;;;18.10;99.90;;;;;;5108398;28;20283;-59
2022/07/11 00:39:17;;;;;;;0.52;0.43;;;18.10;99.90;;;;;;5105181;28;20196;-58
2022/07/11 00:41:44;;;;;;;0.43;0.43;;;18.10;99.90;;;;;;5108021;28;20736;-60
2022/07/11 00:44:13;;;;;;;0.50;0.50;;;18.10;99.90;;;;;;5112380;28;20609;-59
2022/07/11 00:46:40;;;;;;;0.40;0.40;;;18.10;99.90;;;;;;5111939;28;20192;-59
2022/07/11 00:49:07;;;;;;;0.55;0.50;;;18.10;99.90;;;;;;5110452;28;20220;-59
2022/07/11 00:51:34;;;;;;;1.20;0.52;;;18.00;99.90;;;;;;5110407;28;20374;-59
2022/07/11 00:54:02;;;;;;;0.65;0.57;;;18.00;99.90;;;;;;5111614;28;20569;-59
2022/07/11 00:56:30;;;;;;;0.50;0.50;;;17.90;99.90;;;;;;5110470;28;20226;-60
2022/07/11 00:58:59;;;;;;;1.65;0.47;;;17.90;99.90;;;;;;5112046;28;20184;-60
2022/07/11 01:01:27;;;;;;;0.60;0.60;;;17.80;99.90;;;;;;5103441;28;20664;-60
2022/07/11 01:03:54;;;;;;;0.50;0.50;;;17.80;99.90;;;;;;5110847;28;20195;-60
2022/07/11 01:06:22;;;;;;;0.50;0.50;;;17.80;99.90;;;;;;5111596;28;20207;-60
2022/07/11 01:08:49;;;;;;;0.50;0.50;;;17.80;99.90;;;;;;5110103;28;20218;-59
2022/07/11 01:11:17;;;;;;;0.40;0.40;;;17.90;99.90;;;;;;5110187;28;20227;-60
2022/07/11 01:13:45;;;;;;;0.40;0.40;;;17.90;99.90;;;;;;5111398;28;20286;-60
2022/07/11 01:16:13;;;;;;;0.60;0.60;;;17.90;99.90;;;;;;5100804;28;20202;-60
2022/07/11 01:18:47;;;;;;;0.50;0.50;;;17.90;99.90;;;;;;5108131;28;20199;-60
2022/07/11 01:21:24;;;;;;;0.50;0.50;;;17.90;99.90;;;;;;5109311;28;20206;-60
2022/07/11 01:23:54;;;;;;;0.50;0.50;;;17.90;99.90;;;;;;5110776;28;20571;-60
2022/07/11 01:26:22;;;;;;;0.40;0.40;;;17.90;99.90;;;;;;5109766;28;20270;-60
2022/07/11 01:28:50;;;;;;;0.40;0.40;;;17.90;99.90;;;;;;5111043;28;20686;-60
2022/07/11 01:31:17;;;;;;;0.50;0.50;;;17.90;99.90;;;;;;5110723;28;20188;-60
2022/07/11 01:33:44;;;;;;;0.40;0.40;;;17.80;99.90;;;;;;5108976;28;20200;-60
2022/07/11 01:36:12;;;;;;;0.43;0.40;;;17.80;99.90;;;;;;5111197;28;20298;-60
2022/07/11 01:38:39;;;;;;;0.43;0.43;;;17.80;99.90;;;;;;5108750;28;20214;-60
2022/07/11 01:41:07;;;;;;;0.50;0.50;;;17.80;99.90;;;;;;5110189;28;20200;-60
2022/07/11 01:43:35;;;;;;;0.40;0.40;;;17.70;99.90;;;;;;5110759;28;20555;-60
2022/07/11 01:46:02;;;;;;;0.40;0.40;;;17.70;99.90;;;;;;5110841;28;20278;-60
2022/07/11 01:48:29;;;;;;;0.52;0.52;;;17.70;99.90;;;;;;5109432;28;20211;-60
2022/07/11 01:50:56;;;;;;;0.40;0.40;;;17.70;99.90;;;;;;5110638;28;20187;-60
2022/07/11 01:53:23;;;;;;;0.55;0.55;;;17.60;99.90;;;;;;5109971;28;20238;-61
2022/07/11 01:55:51;;;;;;;0.40;0.40;;;17.60;99.90;;;;;;5103292;28;20239;-60
2022/07/11 01:58:20;;;;;;;0.50;0.50;;;17.60;99.90;;;;;;5101507;28;20220;-60
2022/07/11 02:00:47;;;;;;;0.32;0.32;;;17.60;99.90;;;;;;5109462;28;20223;-60
2022/07/11 02:03:14;;;;;;;0.30;0.30;;;17.60;99.90;;;;;;5109579;28;20269;-60
2022/07/11 02:05:41;;;;;;;0.40;0.40;;;17.60;99.90;;;;;;5110438;28;20669;-60
2022/07/11 02:08:15;;;;;;;0.38;0.38;;;17.60;99.90;;;;;;5110599;27;20631;-60
2022/07/11 02:10:44;;;;;;;0.40;0.40;;;17.60;99.90;;;;;;5109477;28;20222;-59
2022/07/11 02:13:12;;;;;;;0.35;0.35;;;17.50;99.90;;;;;;5105796;28;20199;-60
2022/07/11 02:15:42;;;;;;;0.50;0.50;;;17.50;99.90;;;;;;5108732;28;20204;-60
2022/07/11 02:18:10;;;;;;;0.40;0.40;;;17.50;99.90;;;;;;5109379;28;20273;-59
2022/07/11 02:20:39;;;;;;;0.40;0.40;;;17.50;99.90;;;;;;5106998;28;20271;-59
2022/07/11 02:23:06;;;;;;;0.50;0.50;;;17.50;99.90;;;;;;5110302;28;20283;-60
2022/07/11 02:25:34;;;;;;;0.40;0.40;;;17.50;99.90;;;;;;5100637;28;20283;-60
2022/07/11 02:28:02;;;;;;;0.40;0.40;;;17.50;99.90;;;;;;5110270;28;20216;-59
2022/07/11 02:30:29;;;;;;;0.47;0.47;;;17.50;99.90;;;;;;5109543;28;20291;-59
2022/07/11 02:32:57;;;;;;;0.38;0.38;;;17.60;99.90;;;;;;5109029;28;20194;-60
2022/07/11 02:35:25;;;;;;;0.35;0.35;;;17.60;99.90;;;;;;5109971;28;20274;-60
2022/07/11 02:37:52;;;;;;;0.30;0.30;;;17.60;99.90;;;;;;5108166;28;20192;-58
2022/07/11 02:40:19;;;;;;;0.35;0.35;;;17.60;99.90;;;;;;5108133;28;20291;-58
2022/07/11 02:42:46;;;;;;;0.35;0.35;;;17.50;99.90;;;;;;5109650;28;20191;-58
2022/07/11 02:45:13;;;;;;;0.47;0.38;;;17.50;99.90;;;;;;5102601;28;20204;-58
2022/07/11 02:47:42;;;;;;;0.40;0.40;;;17.50;99.90;;;;;;5108222;28;20196;-58
2022/07/11 02:50:12;;;;;;;0.30;0.30;;;17.50;99.90;;;;;;5109198;28;20199;-59
2022/07/11 02:52:40;;;;;;;0.30;0.30;;;17.50;99.90;;;;;;5110171;28;20278;-60
2022/07/11 02:55:09;;;;;;;0.40;0.40;;;17.50;99.90;;;;;;5108368;28;20198;-60
2022/07/11 02:57:38;;;;;;;0.35;0.35;;;17.50;99.90;;;;;;5109377;28;20318;-59
2022/07/11 03:00:07;;;;;;;0.35;0.35;;;17.50;99.90;;;;;;5110128;28;20678;-60
2022/07/11 03:02:34;;;;;;;0.38;0.38;;;17.50;99.90;;;;;;5108615;28;20731;-59
2022/07/11 03:05:01;;;;;;;0.38;0.38;;;17.50;99.90;;;;;;5109972;28;20199;-59
2022/07/11 03:07:29;;;;;;;0.32;0.32;;;17.50;99.90;;;;;;5109022;28;20203;-59
2022/07/11 03:09:57;;;;;;;0.30;0.30;;;17.40;99.90;;;;;;5101839;28;20282;-60
2022/07/11 03:12:24;;;;;;;0.30;0.30;;;17.40;99.90;;;;;;5107843;28;20690;-59
2022/07/11 03:14:51;;;;;;;0.22;0.22;;;17.40;99.90;;;;;;5111248;28;20196;-59
2022/07/11 03:17:18;;;;;;;0.30;0.30;;;17.40;99.90;;;;;;5108828;28;20282;-59
2022/07/11 03:19:46;;;;;;;0.40;0.40;;;17.40;99.90;;;;;;5114084;28;20187;-60
2022/07/11 03:22:13;;;;;;;0.35;0.35;;;17.40;99.90;;;;;;5113081;28;20310;-60
2022/07/11 03:24:42;;;;;;;0.32;0.32;;;17.50;99.90;;;;;;5106964;28;20279;-59
2022/07/11 03:27:09;;;;;;;0.32;0.32;;;17.50;99.90;;;;;;5109583;28;20558;-60
2022/07/11 03:29:37;;;;;;;0.40;0.40;;;17.50;99.90;;;;;;5106749;28;20212;-60
2022/07/11 03:32:05;;;;;;;0.40;0.40;;;17.50;99.90;;;;;;5109716;28;20211;-60
2022/07/11 03:34:32;;;;;;;0.38;0.38;;;17.50;99.90;;;;;;5114255;28;20192;-60
2022/07/11 03:36:59;;;;;;;0.40;0.40;;;17.60;99.90;;;;;;5109086;28;20233;-59
2022/07/11 03:39:26;;;;;;;0.45;0.45;;;17.60;99.90;;;;;;5113673;28;20187;-60
2022/07/11 03:41:54;;;;;;;0.32;0.32;;;17.60;99.90;;;;;;5112742;28;20286;-59
2022/07/11 03:44:21;;;;;;;0.40;0.40;;;17.70;99.90;;;;;;5114004;28;20249;-61
2022/07/11 03:46:49;;;;;;;0.40;0.40;;;17.70;99.90;;;;;;5112453;28;20571;-60
2022/07/11 03:49:16;;;;;;;0.38;0.38;;;17.70;99.90;;;;;;5113426;28;20304;-59
2022/07/11 03:51:43;;;;;;;0.40;0.38;;;17.70;99.90;;;;;;5112711;28;20196;-59
2022/07/11 03:54:10;;;;;;;0.30;0.30;;;17.80;99.90;;;;;;5113052;28;20204;-59
2022/07/11 03:56:37;;;;;;;0.30;0.30;;;17.70;99.90;;;;;;5111220;28;20640;-60
2022/07/11 03:59:05;;;;;;;0.45;0.45;;;17.80;99.90;;;;;;5103720;28;20188;-60
2022/07/11 04:01:32;;;;;;;2.63;0.30;;;17.80;99.90;;;;;;5111887;28;20200;-59
2022/07/11 04:03:59;;;;;;;0.38;0.38;;;17.80;99.90;;;;;;5112150;28;20253;-60
2022/07/11 04:06:27;;;;;;;0.40;0.40;;;17.80;99.90;;;;;;5107730;28;20236;-59
2022/07/11 04:08:54;;;;;;;0.30;0.30;;;17.80;99.90;;;;;;5112218;28;20207;-60
2022/07/11 04:11:21;;;;;;;0.35;0.35;;;17.80;99.90;;;;;;5111819;28;20325;-60
2022/07/11 04:13:48;;;;;;;0.40;0.40;;;17.80;99.90;;;;;;5112823;28;20236;-59
2022/07/11 04:16:16;;;;;;;0.57;0.57;;;17.80;99.90;;;;;;5111914;28;20253;-59
2022/07/11 04:18:43;;;;;;;0.40;0.40;;;17.70;99.90;;;;;;5112010;28;20214;-59
2022/07/11 04:21:11;;;;;;;0.30;0.30;;;17.70;99.90;;;;;;5112014;28;20283;-58
2022/07/11 04:23:38;;;;;;;0.63;0.45;;;17.70;99.90;;;;;;5111019;28;20219;-58
2022/07/11 04:26:05;;;;;;;0.30;0.30;;;17.70;99.90;;;;;;5111597;28;20570;-58
2022/07/11 04:28:32;;;;;;;0.30;0.30;;;17.70;99.90;;;;;;5112263;28;20215;-59
2022/07/11 04:30:59;;;;;;;0.40;0.40;;;17.70;99.90;;;;;;5109286;28;20245;-59
2022/07/11 04:33:28;;;;;;;0.40;0.40;;;17.70;99.90;;;;;;5111209;28;20264;-59
2022/07/11 04:35:55;;;;;;;0.40;0.40;;;17.70;99.90;;;;;;5110764;28;20536;-59
2022/07/11 04:38:22;;;;;;;0.40;0.40;;;17.70;99.90;;;;;;5111766;28;20296;-58
2022/07/11 04:40:49;;;;;;;0.40;0.40;;;17.70;99.90;;;;;;5111224;28;20206;-58
2022/07/11 04:43:16;;;;;;;0.30;0.30;;;17.70;99.90;;;;;;5097003;28;20273;-59
2022/07/11 04:45:43;;;;;;;0.40;0.40;;;17.70;99.90;;;;;;5112183;28;20295;-58
2022/07/11 04:48:10;;;;;;;0.40;0.40;;;17.70;99.90;;;;;;5095030;28;20218;-58
2022/07/11 04:50:39;;;;;;;1.73;0.38;;;17.70;99.90;;;;;;5111283;28;20195;-58
2022/07/11 04:53:06;;;;;;;0.30;0.30;;;17.70;99.90;;;;;;5111720;28;20282;-59
2022/07/11 04:55:33;;;;;;;0.47;0.47;;;17.70;99.90;;;;;;5110543;28;20656;-59
2022/07/11 04:58:00;;;;;;;0.30;0.30;;;17.70;99.90;;;;;;5111081;28;20782;-59
2022/07/11 05:00:27;;;;;;;0.40;0.40;;;17.70;99.90;;;;;;5111678;28;20275;-59
2022/07/11 05:02:55;;;;;;;0.30;0.30;;;17.80;99.90;;;;;;5110652;28;20527;-58
2022/07/11 05:05:23;;;;;;;0.35;0.35;;;17.70;99.90;;;;;;5110482;28;20677;-59
2022/07/11 05:07:52;;;;;;;0.30;0.30;;;17.70;99.90;;;;;;5111272;28;20785;-59
2022/07/11 05:10:19;;;;;;;0.30;0.30;;;17.80;99.90;;;;;;5096977;28;20212;-59
2022/07/11 05:12:46;;;;;;;1.00;0.45;;;17.80;99.90;;;;;;5092803;28;20264;-60
2022/07/11 05:15:13;;;;;;;0.32;0.32;;;17.80;99.90;;;;;;5097029;28;20615;-59
2022/07/11 05:17:40;;;;;;;0.60;0.60;;;17.80;99.90;;;;;;5106156;28;20235;-59
2022/07/11 05:20:08;;;;;;;0.40;0.40;;;17.90;99.90;;;;;;5111166;28;20728;-59
2022/07/11 05:22:36;;;;;;;0.50;0.50;;;17.90;99.90;;;;;;5108656;28;20218;-59
2022/07/11 05:25:05;;;;;;;0.30;0.30;;;17.90;99.90;;;;;;5106903;28;20739;-58
2022/07/11 05:27:32;;;;;;;0.68;0.43;;;17.90;99.90;;;;;;5111343;28;20225;-59
2022/07/11 05:29:59;;;;;;;0.40;0.40;;;17.90;99.90;;;;;;5111111;28;20212;-59
2022/07/11 05:32:26;;;;;;;2.00;0.50;;;17.90;99.90;;;;;;5110137;28;20298;-59
2022/07/11 05:34:53;;;;;;;0.40;0.40;;;17.90;99.90;;;;;;5111033;28;20558;-59
2022/07/11 05:37:20;;;;;;;0.40;0.40;;;18.00;99.90;;;;;;5111166;28;20271;-59
2022/07/11 05:39:46;;;;;;;0.40;0.40;;;18.00;99.90;;;;;;5111221;28;20195;-60
2022/07/11 05:42:15;;;;;;;0.35;0.35;;;18.00;99.90;;;;;;5110035;28;20778;-60
2022/07/11 05:44:42;;;;;;;0.38;0.38;;;18.00;99.90;;;;;;5111094;28;20191;-59
2022/07/11 05:47:09;;;;;;;0.30;0.30;;;18.00;99.90;;;;;;5110041;28;20230;-59
2022/07/11 05:49:37;;;;;;;0.40;0.40;;;18.00;99.90;;;;;;5111025;28;20638;-60
2022/07/11 05:52:04;;;;;;;0.55;0.55;;;18.00;99.90;;;;;;5109623;28;20436;-60
2022/07/11 05:54:31;;;;;;;0.50;0.50;;;18.00;99.90;;;;;;5109962;28;20230;-59
2022/07/11 05:56:58;;;;;;;1.23;0.30;;;18.10;99.90;;;;;;5109746;28;20235;-58
2022/07/11 05:59:26;;;;;;;0.40;0.40;;;18.10;99.90;;;;;;5091591;28;20238;-59
2022/07/11 06:01:53;;;;;;;0.40;0.40;;;18.10;99.90;;;;;;5106984;28;20198;-59
2022/07/11 06:04:20;;;;;;;0.47;0.47;;;18.10;99.90;;;;;;5110017;28;20220;-59
2022/07/11 06:06:47;;;;;;;0.50;0.50;;;18.10;99.90;;;;;;5110155;28;20278;-60
2022/07/11 06:09:15;;;;;;;0.30;0.30;;;18.00;99.90;;;;;;5110130;28;20212;-60
2022/07/11 06:11:42;;;;;;;0.50;0.50;;;18.00;99.90;;;;;;5109280;28;20610;-60
2022/07/11 06:14:09;;;;;;;0.50;0.40;;;18.00;99.90;;;;;;5110358;28;20227;-59
2022/07/11 06:16:38;;;;;;;0.45;0.45;;;18.00;99.90;;;;;;5099375;28;20279;-59
2022/07/11 06:19:05;;;;;;;0.65;0.52;;;18.00;99.90;;;;;;5098580;28;20281;-60
2022/07/11 06:21:33;;;;;;;0.30;0.30;;;18.00;99.90;;;;;;5100107;28;20204;-59
2022/07/11 06:24:00;;;;;;;0.40;0.40;;;18.00;99.90;;;;;;5109507;28;20196;-58
2022/07/11 06:26:27;;;;;;;0.20;0.20;;;18.10;99.90;;;;;;5105208;28;20279;-59
2022/07/11 06:28:55;;;;;;;0.40;0.40;;;18.00;99.90;;;;;;5109695;28;20200;-60
2022/07/11 06:31:22;;;;;;;0.30;0.30;;;18.00;99.90;;;;;;5110161;28;20200;-59
2022/07/11 06:33:54;;;;;;;0.40;0.30;;;18.00;99.90;;;;;;5108765;28;20361;-59
2022/07/11 06:36:22;;;;;;;0.30;0.30;;;18.00;99.90;;;;;;5109881;28;20191;-59
2022/07/11 06:38:49;;;;;;;0.30;0.30;;;18.10;99.90;;;;;;5109013;28;20207;-60
2022/07/11 06:41:17;;;;;;;0.38;0.38;;;18.10;99.90;;;;;;5109399;28;20224;-60
2022/07/11 06:43:47;;;;;;;0.40;0.40;;;18.20;99.90;;;;;;5109172;28;20191;-60
2022/07/11 06:46:14;;;;;;;0.40;0.40;;;18.30;99.90;;;;;;5110353;28;20642;-60
2022/07/11 06:48:41;;;;;;;0.77;0.40;;;18.30;99.90;;;;;;5112119;28;20199;-60
2022/07/11 06:51:10;;;;;;;0.68;0.40;;;18.40;99.90;;;;;;5112564;28;20219;-60
2022/07/11 06:53:37;;;;;;;0.40;0.40;;;18.40;99.90;;;;;;5112360;28;20621;-60
2022/07/11 06:56:04;;;;;;;0.50;0.50;;;18.40;99.90;;;;;;5112313;28;20209;-60
2022/07/11 06:58:34;;;;;;;0.47;0.47;;;18.40;99.90;;;;;;5112594;28;20223;-59
2022/07/11 07:01:02;;;;;;;2.00;0.57;;;18.40;99.90;;;;;;5112891;28;20234;-59
2022/07/11 07:03:30;;;;;;;0.38;0.38;;;18.40;99.90;;;;;;5112071;28;20188;-58
2022/07/11 07:05:57;;;;;;;0.38;0.38;;;18.40;99.90;;;;;;5112018;28;20340;-59
2022/07/11 07:08:28;;;;;;;0.40;0.40;;;18.40;99.90;;;;;;5110425;28;20195;-59
2022/07/11 07:10:56;;;;;;;0.40;0.40;;;18.50;99.90;;;;;;5096347;28;20212;-59
2022/07/11 07:13:25;;;;;;;0.47;0.47;;;18.50;99.90;;;;;;5111805;28;20558;-59
2022/07/11 07:15:53;;;;;;;1.05;0.80;;;18.50;99.90;;;;;;5109590;28;20208;-60
2022/07/11 07:18:20;;;;;;;0.30;0.30;;;18.60;99.90;;;;;;5104300;28;20204;-60
2022/07/11 07:20:48;;;;;;;0.40;0.40;;;18.60;99.90;;;;;;5105472;28;20663;-59
2022/07/11 07:23:16;;;;;;;0.40;0.40;;;18.70;99.90;;;;;;5101783;28;20211;-59
2022/07/11 07:25:44;;;;;;;0.40;0.40;;;18.70;99.90;;;;;;5104156;28;20224;-59
2022/07/11 07:28:12;;;;;;;0.30;0.30;;;18.80;99.90;;;;;;5107017;28;20258;-59
2022/07/11 07:30:39;;;;;;;0.40;0.40;;;18.90;99.90;;;;;;5106636;28;20254;-59
2022/07/11 07:33:06;;;;;;;1.30;0.40;;;18.90;99.90;;;;;;5111601;28;20191;-58
2022/07/11 07:35:32;;;;;;;0.30;0.30;;;19.00;99.90;;;;;;5099150;28;20378;-59
2022/07/11 07:38:00;;;;;;;0.47;0.47;;;19.10;99.90;;;;;;5107796;28;20307;-60
2022/07/11 07:40:28;;;;;;;0.50;0.50;;;19.20;99.90;;;;;;5104209;28;20699;-60
2022/07/11 07:42:56;;;;;;;0.40;0.40;;;19.30;99.90;;;;;;5109699;28;20716;-60
2022/07/11 07:45:24;;;;;;;0.45;0.45;;;19.50;99.90;;;;;;5099011;28;20257;-60
2022/07/11 07:47:51;;;;;;;0.30;0.30;;;19.60;99.90;;;;;;5107224;28;20564;-60
2022/07/11 07:50:18;;;;;;;0.50;0.50;;;19.70;99.90;;;;;;5102980;28;20239;-59
2022/07/11 07:52:45;;;;;;;0.40;0.40;;;19.80;99.90;;;;;;5107785;28;20199;-60
2022/07/11 07:55:12;;;;;;;1.65;0.50;;;19.90;99.90;;;;;;5106720;28;20224;-60
2022/07/11 07:57:39;;;;;;;0.57;0.50;;;19.90;99.90;;;;;;5099399;28;20253;-60
2022/07/11 08:02:54;;;;;;;0.30;0.30;;;20.10;99.90;;;;;;5101914;28;20189;-59
2022/07/11 08:05:21;;;;;;;0.50;0.50;;;20.20;99.90;;;;;;5111379;28;20198;-60
2022/07/11 08:07:48;;;;;;;0.40;0.40;;;20.20;99.90;;;;;;5112104;28;20261;-59
2022/07/11 08:10:15;;;;;;;2.45;0.70;;;20.20;99.90;;;;;;5099370;28;20302;-60
2022/07/11 08:12:42;;;;;;;0.50;0.50;;;20.20;99.90;;;;;;5106422;28;20192;-60
2022/07/11 08:15:12;;;;;;;0.50;0.50;;;20.30;99.90;;;;;;5104978;28;20200;-61
2022/07/11 08:17:39;;;;;;;0.68;0.50;;;20.30;99.90;;;;;;5110585;28;20245;-59
2022/07/11 08:20:06;;;;;;;0.52;0.45;;;20.30;99.90;;;;;;5110909;28;20295;-60
2022/07/11 08:22:33;;;;;;;0.43;0.40;;;20.30;99.90;;;;;;5108297;28;20203;-59
2022/07/11 08:25:00;;;;;;;0.40;0.40;;;20.30;99.90;;;;;;5105766;28;20196;-60
2022/07/11 08:27:27;;;;;;;0.40;0.40;;;20.30;99.90;;;;;;5108658;28;20260;-60
2022/07/11 08:29:54;;;;;;;0.40;0.40;;;20.40;99.90;;;;;;5106254;28;20229;-59
2022/07/11 08:32:24;;;;;;;0.30;0.30;;;20.30;99.90;;;;;;5105416;28;20215;-59
2022/07/11 08:34:51;;;;;;;0.40;0.40;;;20.30;99.90;;;;;;5110741;28;20287;-60
2022/07/11 08:37:18;;;;;;;0.85;0.40;;;20.30;99.90;;;;;;5111383;28;20200;-60
2022/07/11 08:39:45;;;;;;;0.65;0.47;;;20.20;99.90;;;;;;5110965;28;20599;-61
2022/07/11 08:42:12;;;;;;;0.45;0.45;;;20.20;99.90;;;;;;5099641;28;20199;-59
2022/07/11 08:44:39;;;;;;;0.40;0.40;;;20.20;99.90;;;;;;5111741;28;20223;-59
2022/07/11 08:47:07;;;;;;;0.30;0.30;;;20.30;99.90;;;;;;5105675;28;20768;-59
2022/07/11 08:49:36;;;;;;;0.45;0.45;;;20.40;99.90;;;;;;5106706;28;20231;-60
2022/07/11 08:52:04;;;;;;;0.40;0.40;;;20.40;99.90;;;;;;5109951;28;20195;-60
2022/07/11 08:54:31;;;;;;;0.40;0.40;;;20.40;99.90;;;;;;5101960;28;20226;-60
2022/07/11 08:56:59;;;;;;;0.45;0.45;;;20.40;99.90;;;;;;5104352;28;20315;-60
2022/07/11 08:59:28;;;;;;;0.40;0.40;;;20.40;99.90;;;;;;5097808;28;20295;-60
2022/07/11 09:01:58;;;;;;;0.45;0.45;;;20.40;99.90;;;;;;5098178;28;20192;-60
2022/07/11 09:04:27;;;;;;;0.40;0.40;;;20.40;99.90;;;;;;5110295;28;20192;-60
2022/07/11 09:06:56;;;;;;;0.52;0.40;;;20.40;99.90;;;;;;5109910;28;20208;-60
2022/07/11 09:09:23;;;;;;;0.40;0.40;;;20.30;99.80;;;;;;5107256;28;20199;-60
2022/07/11 09:11:51;;;;;;;0.45;0.40;;;20.30;99.80;;;;;;5108798;28;20295;-60
2022/07/11 09:14:24;;;;;;;0.52;0.52;;;20.30;99.70;;;;;;5110894;27;20278;-60
2022/07/11 09:16:55;;;;;;;1.27;0.65;;;20.30;99.50;;;;;;5103496;28;20196;-60
2022/07/11 09:19:24;;;;;;;0.52;0.52;;;20.40;99.30;;;;;;5109165;28;20231;-60
2022/07/11 09:27:42;;;;;;;0.40;0.40;;;20.50;98.90;;;;;;5097619;28;20197;-59
2022/07/11 09:30:35;;;;;;;1.15;0.30;;;20.60;98.90;;;;;;5107643;27;20302;-60
2022/07/11 09:33:04;;;;;;;1.55;0.50;;;20.50;98.90;;;;;;5087890;28;20577;-59
2022/07/11 09:35:34;;;;;;;0.40;0.40;;;20.60;98.90;;;;;;5104590;28;20188;-60
2022/07/11 09:38:05;;;;;;;0.40;0.40;;;20.60;98.80;;;;;;5099047;28;20207;-60
2022/07/11 09:40:32;;;;;;;0.50;0.50;;;20.70;98.80;;;;;;5108000;28;20230;-61
2022/07/11 09:43:00;;;;;;;0.30;0.30;;;20.70;98.70;;;;;;5110249;28;20207;-60
2022/07/11 09:45:29;;;;;;;0.50;0.50;;;20.80;98.70;;;;;;5097003;28;20196;-62
2022/07/11 09:47:59;;;;;;;0.65;0.65;;;20.80;98.60;;;;;;5103503;28;20252;-60
2022/07/11 09:50:27;;;;;;;0.40;0.40;;;20.90;98.50;;;;;;5096037;28;20633;-61
2022/07/11 09:53:07;;;;;;;0.40;0.40;;;20.90;98.40;;;;;;5094761;28;20235;-61
2022/07/11 09:55:36;;;;;;;1.23;0.60;;;20.90;98.40;;;;;;5108336;28;20208;-61
2022/07/11 09:58:06;;;;;;;1.95;0.45;;;21.00;98.30;;;;;;5109770;28;20322;-61
2022/07/11 10:00:35;;;;;;;0.65;0.45;;;21.10;98.00;;;;;;5108806;28;20532;-61
2022/07/11 10:03:02;;;;;;;1.00;0.50;;;21.20;97.90;;;;;;5105337;28;20208;-61
2022/07/11 10:05:30;;;;;;;0.50;0.50;;;21.30;97.80;;;;;;5110250;28;20532;-60
2022/07/11 10:07:58;;;;;;;1.15;0.50;;;21.40;97.60;;;;;;5106986;28;20195;-61
2022/07/11 10:10:27;;;;;;;1.63;0.50;;;21.50;97.40;;;;;;5108586;28;20224;-61
2022/07/11 10:12:55;;;;;;;0.52;0.52;;;21.50;97.20;;;;;;5099224;28;20646;-61
2022/07/11 10:15:25;;;;;;;0.55;0.50;;;21.60;97.10;;;;;;5102390;28;20230;-61
2022/07/11 10:18:01;;;;;;;0.40;0.40;;;21.80;97.00;;;;;;5103401;28;20552;-60
2022/07/11 10:20:33;;;;;;;0.60;0.60;;;21.90;96.90;;;;;;5106301;28;20336;-60
2022/07/11 10:23:10;;;;;;;0.50;0.50;;;22.00;96.70;;;;;;5109382;28;20271;-60
2022/07/11 10:25:45;;;;;;;0.47;0.43;;;22.00;96.40;;;;;;5105907;28;20183;-61
2022/07/11 10:28:26;;;;;;;0.50;0.50;;;22.10;96.20;;;;;;5097938;28;20562;-61
2022/07/11 10:30:55;;;;;;;0.47;0.30;;;22.10;96.00;;;;;;5108350;28;20211;-61
2022/07/11 10:33:23;;;;;;;0.40;0.40;;;22.10;95.80;;;;;;5108445;28;20200;-62
2022/07/11 10:35:52;;;;;;;0.68;0.68;;;22.20;95.80;;;;;;5108651;28;20288;-61
2022/07/11 10:38:19;;;;;;;1.80;0.40;;;22.30;95.60;;;;;;5093624;28;20200;-61
2022/07/11 10:40:50;;;;;;;0.57;0.57;;;22.30;95.40;;;;;;5107852;28;20589;-63
2022/07/11 10:43:35;;;;;;;0.40;0.40;;;22.30;95.40;;;;;;5106114;28;20187;-62
2022/07/11 10:46:05;;;;;;;1.65;0.43;;;22.40;95.40;;;;;;5097713;28;20276;-61
2022/07/11 10:48:35;;;;;;;1.65;0.43;;;22.40;95.30;;;;;;5108116;28;20188;-61
2022/07/11 10:51:09;;;;;;;1.20;0.57;;;22.50;95.20;;;;;;5097400;28;20222;-61
2022/07/11 10:53:45;;;;;;;1.38;0.55;;;22.60;95.00;;;;;;5107102;28;20202;-61
2022/07/11 10:56:36;;;;;;;0.47;0.47;;;22.70;94.40;;;;;;5109013;28;20195;-61
2022/07/11 10:59:15;;;;;;;0.70;0.70;;;22.70;94.20;;;;;;5109753;28;20303;-61
2022/07/11 11:02:19;;;;;;;0.57;0.57;;;22.70;94.10;;;;;;5108561;28;20187;-60
2022/07/11 11:04:50;;;;;;;0.50;0.50;;;22.70;94.10;;;;;;5109388;28;20187;-61
2022/07/11 11:07:32;;;;;;;0.77;0.57;;;22.80;94.10;;;;;;5109240;28;20230;-60
2022/07/11 11:10:00;;;;;;;3.70;0.70;;;22.80;94.00;;;;;;5107741;28;20685;-61
2022/07/11 11:13:05;;;;;;;0.45;0.45;;;22.90;93.80;;;;;;5108088;28;20212;-61
2022/07/11 11:15:35;;;;;;;0.77;0.70;;;22.90;93.30;;;;;;5099635;28;20289;-60
2022/07/11 11:18:34;;;;;;;0.95;0.70;;;23.00;93.00;;;;;;5100368;28;20643;-61
2022/07/11 11:21:30;;;;;;;0.80;0.80;;;23.00;93.00;;;;;;5108538;28;20659;-61
2022/07/11 11:24:08;;;;;;;1.30;0.60;;;23.10;92.60;;;;;;5100138;28;20245;-61
2022/07/11 11:26:52;;;;;;;1.52;0.40;;;23.10;92.10;;;;;;5102922;28;20199;-61
2022/07/11 11:29:22;;;;;;;1.63;0.60;;;23.10;92.00;;;;;;5103673;28;20192;-61
2022/07/11 11:31:56;;;;;;;0.65;0.50;;;23.20;91.80;;;;;;5107980;28;20223;-61
2022/07/11 11:34:24;;;;;;;0.73;0.70;;;23.20;91.70;;;;;;5113409;28;20279;-61
2022/07/11 11:36:59;;;;;;;0.60;0.60;;;23.30;91.50;;;;;;5112646;28;20191;-62
2022/07/11 11:39:28;;;;;;;1.50;0.50;;;23.30;91.30;;;;;;5112441;28;20196;-61
2022/07/11 11:42:08;;;;;;;4.47;0.60;;;23.40;91.10;;;;;;5099240;28;20188;-61
2022/07/11 11:44:49;;;;;;;0.60;0.60;;;23.40;91.00;;;;;;5110810;28;20207;-62
2022/07/11 11:47:17;;;;;;;0.50;0.50;;;23.40;91.00;;;;;;5110355;28;20573;-62
2022/07/11 11:49:46;;;;;;;0.50;0.50;;;23.50;90.90;;;;;;5105471;28;20200;-61
2022/07/11 11:52:14;;;;;;;0.50;0.50;;;23.50;90.90;;;;;;5111350;28;20219;-61
2022/07/11 11:54:41;;;;;;;0.40;0.40;;;23.50;90.20;;;;;;5104440;28;20205;-61
2022/07/11 11:57:11;;;;;;;0.45;0.45;;;23.50;88.80;;;;;;5109995;28;20285;-61
2022/07/11 11:59:38;;;;;;;0.35;0.35;;;23.50;87.10;;;;;;5101269;28;20276;-61
2022/07/11 12:02:06;;;;;;;0.40;0.40;;;23.50;86.50;;;;;;5110096;28;20192;-61
2022/07/11 12:04:36;;;;;;;4.22;0.52;;;23.40;86.60;;;;;;5112919;28;20200;-62
2022/07/11 12:07:04;;;;;;;1.65;0.40;;;23.50;87.30;;;;;;5112125;28;20463;-60
2022/07/11 12:09:51;;;;;;;1.75;0.63;;;23.50;87.30;;;;;;5112274;28;20200;-60
2022/07/11 12:15:06;;;;;;;0.70;0.60;;;23.50;86.30;;;;;;5111183;28;20191;-60
2022/07/11 12:17:33;;;;;;;0.52;0.50;;;23.40;86.30;;;;;;5098841;28;20214;-60
2022/07/11 12:20:02;;;;;;;0.50;0.50;;;23.40;86.00;;;;;;5098168;28;20261;-60
2022/07/11 12:22:29;;;;;;;0.60;0.52;;;23.50;85.30;;;;;;5111783;28;20288;-60
2022/07/11 12:24:56;;;;;;;2.28;0.50;;;23.40;83.70;;;;;;5111173;27;20196;-60
2022/07/11 12:27:26;;;;;;;0.55;0.55;;;23.40;83.10;;;;;;5099336;28;20295;-60
2022/07/11 12:29:53;;;;;;;0.65;0.50;;;23.40;84.30;;;;;;5110216;28;20699;-60
2022/07/11 12:32:22;;;;;;;1.85;0.45;;;23.40;84.40;;;;;;5104686;28;20208;-62
2022/07/11 12:34:50;;;;;;;1.10;0.50;;;23.50;85.30;;;;;;5110419;28;20192;-61
2022/07/11 12:37:20;;;;;;;0.47;0.47;;;23.50;85.90;;;;;;5111444;28;20231;-61
2022/07/11 12:39:52;;;;;;;0.68;0.68;;;23.50;86.60;;;;;;5111145;28;20188;-62
2022/07/11 12:42:25;;;;;;;0.65;0.60;;;23.50;87.20;;;;;;5104718;28;20635;-62
2022/07/11 12:44:59;;;;;;;2.17;0.50;;;23.50;87.50;;;;;;5110333;28;20191;-62
2022/07/11 12:47:27;;;;;;;0.57;0.57;;;23.50;88.40;;;;;;5109435;28;20573;-61
2022/07/11 12:49:55;;;;;;;0.50;0.50;;;23.60;89.40;;;;;;5102774;28;20958;-62
2022/07/11 12:52:24;;;;;;;0.50;0.50;;;23.50;88.70;;;;;;5110425;28;20208;-62
2022/07/11 12:55:00;;;;;;;1.27;0.65;;;23.50;88.90;;;;;;5110816;28;20188;-62
2022/07/11 12:57:27;;;;;;;0.57;0.52;;;23.60;88.40;;;;;;5107991;28;20223;-61
2022/07/11 12:59:54;;;;;;;0.50;0.50;;;23.60;87.40;;;;;;5109145;28;20218;-61
2022/07/11 13:02:27;;;;;;;0.50;0.50;;;23.50;87.30;;;;;;5109448;28;20260;-61
2022/07/11 13:04:54;;;;;;;0.50;0.50;;;23.50;87.20;;;;;;5104101;28;20196;-61
2022/07/11 13:10:14;;;;;;;0.50;0.50;;;23.50;87.50;;;;;;5109450;28;20200;-61
2022/07/11 13:12:43;;;;;;;0.40;0.40;;;23.50;87.90;;;;;;5109596;28;20203;-61